sensor_id;sensor_type;location;lat;lon;timestamp;pressure;altitude;pressure_sealevel;temperature;humidity
28079;BME280;15388;42.238;24.684;2022-12-24T00:00:58;99375.56;;;0.79;100.00
28079;BME280;15388;42.238;24.684;2022-12-24T00:03:23;99387.44;;;0.86;100.00
28079;BME280;15388;42.238;24.684;2022-12-24T00:05:48;99378.47;;;0.55;100.00
28079;BME280;15388;42.238;24.684;2022-12-24T00:08:14;99388.78;;;0.40;100.00
28079;BME280;15388;42.238;24.684;2022-12-24T00:10:39;99377.44;;;0.40;100.00
28079;BME280;15388;42.238;24.684;2022-12-24T00:13:04;99382.44;;;0.27;100.00
28079;BME280;15388;42.238;24.684;2022-12-24T00:15:30;99380.47;;;0.32;100.00
28079;BME280;15388;42.238;24.684;2022-12-24T00:17:55;99381.53;;;0.28;100.00
28079;BME280;15388;42.238;24.684;2022-12-24T00:20:20;99380.75;;;0.25;100.00
28079;BME280;15388;42.238;24.684;2022-12-24T00:22:45;99384.44;;;0.21;100.00
28079;BME280;15388;42.238;24.684;2022-12-24T00:25:10;99376.00;;;0.34;100.00
28079;BME280;15388;42.238;24.684;2022-12-24T00:27:36;99387.25;;;0.36;100.00
28079;BME280;15388;42.238;24.684;2022-12-24T00:30:01;99379.25;;;0.39;100.00
28079;BME280;15388;42.238;24.684;2022-12-24T00:32:26;99380.00;;;0.41;100.00
28079;BME280;15388;42.238;24.684;2022-12-24T00:34:52;99383.66;;;0.56;100.00
28079;BME280;15388;42.238;24.684;2022-12-24T00:37:17;99380.81;;;0.61;100.00
28079;BME280;15388;42.238;24.684;2022-12-24T00:39:42;99375.88;;;0.72;100.00
28079;BME280;15388;42.238;24.684;2022-12-24T00:42:07;99370.78;;;0.69;100.00
28079;BME280;15388;42.238;24.684;2022-12-24T00:44:33;99381.25;;;0.69;100.00
28079;BME280;15388;42.238;24.684;2022-12-24T00:46:58;99368.78;;;0.74;100.00
28079;BME280;15388;42.238;24.684;2022-12-24T00:49:23;99368.16;;;0.69;100.00
28079;BME280;15388;42.238;24.684;2022-12-24T00:51:48;99382.47;;;0.62;100.00
28079;BME280;15388;42.238;24.684;2022-12-24T00:54:14;99373.25;;;0.72;100.00
28079;BME280;15388;42.238;24.684;2022-12-24T00:56:40;99372.00;;;0.62;100.00
28079;BME280;15388;42.238;24.684;2022-12-24T00:59:05;99373.88;;;0.60;100.00
28079;BME280;15388;42.238;24.684;2022-12-24T01:01:30;99354.59;;;0.43;100.00
28079;BME280;15388;42.238;24.684;2022-12-24T01:03:55;99367.22;;;0.53;100.00
28079;BME280;15388;42.238;24.684;2022-12-24T01:06:41;99365.69;;;0.48;100.00
28079;BME280;15388;42.238;24.684;2022-12-24T01:09:06;99358.38;;;0.37;100.00
28079;BME280;15388;42.238;24.684;2022-12-24T01:11:31;99364.16;;;0.44;100.00
28079;BME280;15388;42.238;24.684;2022-12-24T01:13:56;99361.75;;;0.40;100.00
28079;BME280;15388;42.238;24.684;2022-12-24T01:16:22;99362.09;;;0.51;100.00
28079;BME280;15388;42.238;24.684;2022-12-24T01:18:47;99357.00;;;0.66;100.00
28079;BME280;15388;42.238;24.684;2022-12-24T01:21:13;99348.44;;;0.62;100.00
28079;BME280;15388;42.238;24.684;2022-12-24T01:23:38;99351.34;;;0.56;100.00
28079;BME280;15388;42.238;24.684;2022-12-24T01:26:03;99347.97;;;0.54;100.00
28079;BME280;15388;42.238;24.684;2022-12-24T01:28:30;99349.66;;;0.37;100.00
28079;BME280;15388;42.238;24.684;2022-12-24T01:30:55;99352.34;;;0.18;100.00
28079;BME280;15388;42.238;24.684;2022-12-24T01:33:20;99350.88;;;0.30;100.00
28079;BME280;15388;42.238;24.684;2022-12-24T01:35:46;99351.69;;;0.49;100.00
28079;BME280;15388;42.238;24.684;2022-12-24T01:38:11;99352.75;;;0.63;100.00
28079;BME280;15388;42.238;24.684;2022-12-24T01:40:37;99352.59;;;0.66;100.00
28079;BME280;15388;42.238;24.684;2022-12-24T01:43:22;99349.81;;;0.69;100.00
28079;BME280;15388;42.238;24.684;2022-12-24T01:45:49;99343.34;;;0.76;100.00
28079;BME280;15388;42.238;24.684;2022-12-24T01:50:45;99344.88;;;0.81;100.00
28079;BME280;15388;42.238;24.684;2022-12-24T01:53:12;99338.75;;;0.64;100.00
28079;BME280;15388;42.238;24.684;2022-12-24T01:55:38;99340.19;;;0.70;100.00
28079;BME280;15388;42.238;24.684;2022-12-24T01:58:04;99343.75;;;0.51;100.00
28079;BME280;15388;42.238;24.684;2022-12-24T02:00:30;99344.88;;;0.45;100.00
28079;BME280;15388;42.238;24.684;2022-12-24T02:02:56;99336.13;;;0.46;100.00
28079;BME280;15388;42.238;24.684;2022-12-24T02:05:33;99341.22;;;0.49;100.00
28079;BME280;15388;42.238;24.684;2022-12-24T02:08:00;99347.13;;;0.53;100.00
28079;BME280;15388;42.238;24.684;2022-12-24T02:10:26;99343.56;;;0.54;100.00
28079;BME280;15388;42.238;24.684;2022-12-24T02:12:52;99346.69;;;0.62;100.00
28079;BME280;15388;42.238;24.684;2022-12-24T02:15:17;99347.91;;;0.73;100.00
28079;BME280;15388;42.238;24.684;2022-12-24T02:17:50;99344.13;;;0.61;100.00
28079;BME280;15388;42.238;24.684;2022-12-24T02:28:15;99340.88;;;0.56;100.00
28079;BME280;15388;42.238;24.684;2022-12-24T02:38:17;99358.75;;;0.47;100.00
28079;BME280;15388;42.238;24.684;2022-12-24T02:40:46;99354.44;;;0.46;100.00
28079;BME280;15388;42.238;24.684;2022-12-24T02:43:14;99349.97;;;0.48;100.00
28079;BME280;15388;42.238;24.684;2022-12-24T02:45:41;99356.28;;;0.62;100.00
28079;BME280;15388;42.238;24.684;2022-12-24T02:48:09;99351.69;;;0.67;100.00
28079;BME280;15388;42.238;24.684;2022-12-24T02:50:37;99356.22;;;0.63;100.00
28079;BME280;15388;42.238;24.684;2022-12-24T02:53:02;99355.69;;;0.57;100.00
28079;BME280;15388;42.238;24.684;2022-12-24T03:13:08;99333.84;;;1.25;100.00
28079;BME280;15388;42.238;24.684;2022-12-24T03:15:35;99329.63;;;1.39;100.00
28079;BME280;15388;42.238;24.684;2022-12-24T03:18:01;99319.81;;;1.43;100.00
28079;BME280;15388;42.238;24.684;2022-12-24T03:20:31;99328.50;;;1.43;100.00
28079;BME280;15388;42.238;24.684;2022-12-24T03:22:58;99318.31;;;1.55;100.00
28079;BME280;15388;42.238;24.684;2022-12-24T03:25:24;99317.44;;;1.54;100.00
28079;BME280;15388;42.238;24.684;2022-12-24T03:27:49;99328.78;;;1.38;100.00
28079;BME280;15388;42.238;24.684;2022-12-24T03:30:15;99337.22;;;1.27;100.00
28079;BME280;15388;42.238;24.684;2022-12-24T03:32:42;99339.28;;;1.05;100.00
28079;BME280;15388;42.238;24.684;2022-12-24T03:35:07;99332.72;;;0.80;100.00
28079;BME280;15388;42.238;24.684;2022-12-24T03:37:33;99338.41;;;0.70;100.00
28079;BME280;15388;42.238;24.684;2022-12-24T03:39:58;99341.03;;;0.53;100.00
28079;BME280;15388;42.238;24.684;2022-12-24T03:42:23;99338.75;;;0.46;100.00
28079;BME280;15388;42.238;24.684;2022-12-24T03:44:48;99337.19;;;0.42;100.00
28079;BME280;15388;42.238;24.684;2022-12-24T03:47:14;99325.16;;;0.38;100.00
28079;BME280;15388;42.238;24.684;2022-12-24T03:49:39;99327.53;;;0.25;100.00
28079;BME280;15388;42.238;24.684;2022-12-24T03:52:04;99317.00;;;0.27;100.00
28079;BME280;15388;42.238;24.684;2022-12-24T03:54:29;99323.94;;;0.45;100.00
28079;BME280;15388;42.238;24.684;2022-12-24T03:56:55;99328.94;;;0.50;100.00
28079;BME280;15388;42.238;24.684;2022-12-24T03:59:20;99317.63;;;0.67;100.00
28079;BME280;15388;42.238;24.684;2022-12-24T04:01:45;99324.78;;;0.81;100.00
28079;BME280;15388;42.238;24.684;2022-12-24T04:04:11;99332.41;;;0.86;100.00
28079;BME280;15388;42.238;24.684;2022-12-24T04:06:36;99328.69;;;0.90;100.00
28079;BME280;15388;42.238;24.684;2022-12-24T04:09:01;99324.19;;;0.92;100.00
28079;BME280;15388;42.238;24.684;2022-12-24T04:11:29;99329.91;;;1.00;100.00
28079;BME280;15388;42.238;24.684;2022-12-24T04:13:54;99323.56;;;1.05;100.00
28079;BME280;15388;42.238;24.684;2022-12-24T04:16:20;99328.50;;;1.11;100.00
28079;BME280;15388;42.238;24.684;2022-12-24T04:18:45;99341.25;;;1.17;100.00
28079;BME280;15388;42.238;24.684;2022-12-24T04:21:10;99328.00;;;1.20;100.00
28079;BME280;15388;42.238;24.684;2022-12-24T04:23:36;99336.56;;;1.24;100.00
28079;BME280;15388;42.238;24.684;2022-12-24T04:26:02;99339.34;;;1.21;100.00
28079;BME280;15388;42.238;24.684;2022-12-24T04:28:29;99331.47;;;1.21;100.00
28079;BME280;15388;42.238;24.684;2022-12-24T04:30:58;99341.25;;;1.17;100.00
28079;BME280;15388;42.238;24.684;2022-12-24T04:33:24;99337.09;;;1.13;100.00
28079;BME280;15388;42.238;24.684;2022-12-24T04:35:49;99337.69;;;1.02;100.00
28079;BME280;15388;42.238;24.684;2022-12-24T04:38:14;99342.06;;;1.01;100.00
28079;BME280;15388;42.238;24.684;2022-12-24T04:40:39;99340.53;;;0.97;100.00
28079;BME280;15388;42.238;24.684;2022-12-24T04:43:04;99334.94;;;0.87;100.00
28079;BME280;15388;42.238;24.684;2022-12-24T04:45:30;99343.47;;;0.91;100.00
28079;BME280;15388;42.238;24.684;2022-12-24T04:47:56;99334.09;;;0.87;100.00
28079;BME280;15388;42.238;24.684;2022-12-24T04:50:21;99332.41;;;0.86;100.00
28079;BME280;15388;42.238;24.684;2022-12-24T04:52:47;99333.16;;;0.88;100.00
28079;BME280;15388;42.238;24.684;2022-12-24T04:55:12;99339.16;;;0.90;100.00
28079;BME280;15388;42.238;24.684;2022-12-24T04:57:37;99337.28;;;0.92;100.00
28079;BME280;15388;42.238;24.684;2022-12-24T05:00:03;99339.69;;;0.97;100.00
28079;BME280;15388;42.238;24.684;2022-12-24T05:02:29;99347.84;;;0.91;100.00
28079;BME280;15388;42.238;24.684;2022-12-24T05:04:54;99349.66;;;0.90;100.00
28079;BME280;15388;42.238;24.684;2022-12-24T05:07:19;99354.19;;;0.86;100.00
28079;BME280;15388;42.238;24.684;2022-12-24T05:09:45;99353.50;;;0.83;100.00
28079;BME280;15388;42.238;24.684;2022-12-24T05:12:10;99356.06;;;0.84;100.00
28079;BME280;15388;42.238;24.684;2022-12-24T05:14:35;99351.63;;;0.85;100.00
28079;BME280;15388;42.238;24.684;2022-12-24T05:17:01;99355.13;;;0.85;100.00
28079;BME280;15388;42.238;24.684;2022-12-24T05:19:26;99366.84;;;0.78;100.00
28079;BME280;15388;42.238;24.684;2022-12-24T05:21:51;99357.69;;;0.69;100.00
28079;BME280;15388;42.238;24.684;2022-12-24T05:24:35;99368.47;;;0.63;100.00
28079;BME280;15388;42.238;24.684;2022-12-24T05:27:19;99364.31;;;0.59;100.00
28079;BME280;15388;42.238;24.684;2022-12-24T05:29:45;99367.06;;;0.56;100.00
28079;BME280;15388;42.238;24.684;2022-12-24T05:32:10;99359.63;;;0.48;100.00
28079;BME280;15388;42.238;24.684;2022-12-24T05:34:35;99367.06;;;0.56;100.00
28079;BME280;15388;42.238;24.684;2022-12-24T05:37:00;99360.78;;;0.60;100.00
28079;BME280;15388;42.238;24.684;2022-12-24T05:39:26;99368.53;;;0.61;100.00
28079;BME280;15388;42.238;24.684;2022-12-24T05:41:51;99357.91;;;0.65;100.00
28079;BME280;15388;42.238;24.684;2022-12-24T05:44:16;99358.69;;;0.67;100.00
28079;BME280;15388;42.238;24.684;2022-12-24T05:46:42;99358.16;;;0.60;100.00
28079;BME280;15388;42.238;24.684;2022-12-24T05:49:07;99365.84;;;0.63;100.00
28079;BME280;15388;42.238;24.684;2022-12-24T05:51:32;99372.31;;;0.56;100.00
28079;BME280;15388;42.238;24.684;2022-12-24T05:53:58;99368.00;;;0.55;100.00
28079;BME280;15388;42.238;24.684;2022-12-24T05:56:23;99372.31;;;0.56;100.00
28079;BME280;15388;42.238;24.684;2022-12-24T05:58:49;99377.69;;;0.53;100.00
28079;BME280;15388;42.238;24.684;2022-12-24T06:01:15;99378.69;;;0.50;100.00
28079;BME280;15388;42.238;24.684;2022-12-24T06:03:40;99372.94;;;0.43;100.00
28079;BME280;15388;42.238;24.684;2022-12-24T06:06:07;99377.31;;;0.43;100.00
28079;BME280;15388;42.238;24.684;2022-12-24T06:08:33;99395.22;;;0.15;100.00
28079;BME280;15388;42.238;24.684;2022-12-24T06:10:59;99395.06;;;0.18;100.00
28079;BME280;15388;42.238;24.684;2022-12-24T06:13:25;99383.91;;;0.15;100.00
28079;BME280;15388;42.238;24.684;2022-12-24T06:15:53;99388.47;;;0.29;100.00
28079;BME280;15388;42.238;24.684;2022-12-24T06:18:18;99380.16;;;0.38;100.00
28079;BME280;15388;42.238;24.684;2022-12-24T06:20:43;99383.41;;;0.43;100.00
28079;BME280;15388;42.238;24.684;2022-12-24T06:23:08;99380.63;;;0.46;100.00
28079;BME280;15388;42.238;24.684;2022-12-24T06:25:34;99388.16;;;0.53;100.00
28079;BME280;15388;42.238;24.684;2022-12-24T06:27:59;99380.94;;;0.58;100.00
28079;BME280;15388;42.238;24.684;2022-12-24T06:30:24;99383.88;;;0.69;100.00
28079;BME280;15388;42.238;24.684;2022-12-24T06:32:49;99384.88;;;0.67;100.00
28079;BME280;15388;42.238;24.684;2022-12-24T06:35:15;99388.50;;;0.46;100.00
28079;BME280;15388;42.238;24.684;2022-12-24T06:37:40;99387.88;;;0.59;100.00
28079;BME280;15388;42.238;24.684;2022-12-24T06:40:06;99389.19;;;0.68;100.00
28079;BME280;15388;42.238;24.684;2022-12-24T06:42:31;99391.88;;;0.84;100.00
28079;BME280;15388;42.238;24.684;2022-12-24T06:44:56;99383.41;;;0.96;100.00
28079;BME280;15388;42.238;24.684;2022-12-24T06:47:21;99379.19;;;1.10;100.00
28079;BME280;15388;42.238;24.684;2022-12-24T06:49:47;99381.94;;;1.24;100.00
28079;BME280;15388;42.238;24.684;2022-12-24T06:52:13;99387.47;;;1.36;100.00
28079;BME280;15388;42.238;24.684;2022-12-24T06:54:38;99384.38;;;1.45;100.00
28079;BME280;15388;42.238;24.684;2022-12-24T06:57:03;99386.44;;;1.56;100.00
28079;BME280;15388;42.238;24.684;2022-12-24T06:59:29;99392.75;;;1.68;100.00
28079;BME280;15388;42.238;24.684;2022-12-24T07:01:54;99382.28;;;1.84;100.00
28079;BME280;15388;42.238;24.684;2022-12-24T07:04:19;99386.63;;;2.01;100.00
28079;BME280;15388;42.238;24.684;2022-12-24T07:06:44;99391.09;;;2.15;100.00
28079;BME280;15388;42.238;24.684;2022-12-24T07:09:11;99388.59;;;2.28;100.00
28079;BME280;15388;42.238;24.684;2022-12-24T07:11:37;99396.63;;;2.41;100.00
28079;BME280;15388;42.238;24.684;2022-12-24T07:14:02;99394.91;;;2.57;100.00
28079;BME280;15388;42.238;24.684;2022-12-24T07:16:27;99401.16;;;2.70;100.00
28079;BME280;15388;42.238;24.684;2022-12-24T07:18:53;99396.84;;;2.84;100.00
28079;BME280;15388;42.238;24.684;2022-12-24T07:21:18;99390.88;;;2.96;100.00
28079;BME280;15388;42.238;24.684;2022-12-24T07:23:43;99388.25;;;2.96;100.00
28079;BME280;15388;42.238;24.684;2022-12-24T07:26:10;99390.31;;;3.05;100.00
28079;BME280;15388;42.238;24.684;2022-12-24T07:28:35;99394.84;;;3.18;100.00
28079;BME280;15388;42.238;24.684;2022-12-24T07:31:00;99390.72;;;3.28;100.00
28079;BME280;15388;42.238;24.684;2022-12-24T07:33:26;99394.09;;;3.45;100.00
28079;BME280;15388;42.238;24.684;2022-12-24T07:36:01;99398.41;;;3.61;100.00
28079;BME280;15388;42.238;24.684;2022-12-24T07:38:27;99389.75;;;3.73;100.00
28079;BME280;15388;42.238;24.684;2022-12-24T07:40:52;99391.41;;;3.89;100.00
28079;BME280;15388;42.238;24.684;2022-12-24T07:43:17;99385.06;;;4.06;100.00
28079;BME280;15388;42.238;24.684;2022-12-24T07:45:43;99401.13;;;4.16;100.00
28079;BME280;15388;42.238;24.684;2022-12-24T07:48:08;99405.59;;;4.28;100.00
28079;BME280;15388;42.238;24.684;2022-12-24T07:50:33;99394.56;;;4.36;100.00
28079;BME280;15388;42.238;24.684;2022-12-24T07:52:58;99406.31;;;4.45;100.00
28079;BME280;15388;42.238;24.684;2022-12-24T07:55:24;99410.22;;;4.52;100.00
28079;BME280;15388;42.238;24.684;2022-12-24T07:57:49;99412.44;;;4.58;100.00
28079;BME280;15388;42.238;24.684;2022-12-24T08:00:14;99415.53;;;4.65;100.00
28079;BME280;15388;42.238;24.684;2022-12-24T08:02:40;99419.84;;;4.66;100.00
28079;BME280;15388;42.238;24.684;2022-12-24T08:05:05;99421.28;;;4.57;100.00
28079;BME280;15388;42.238;24.684;2022-12-24T08:07:30;99423.44;;;4.65;100.00
28079;BME280;15388;42.238;24.684;2022-12-24T08:09:56;99427.72;;;4.53;100.00
28079;BME280;15388;42.238;24.684;2022-12-24T08:12:21;99428.69;;;4.52;100.00
28079;BME280;15388;42.238;24.684;2022-12-24T08:14:47;99436.13;;;4.45;100.00
28079;BME280;15388;42.238;24.684;2022-12-24T08:17:12;99441.91;;;4.38;100.00
28079;BME280;15388;42.238;24.684;2022-12-24T08:19:38;99440.94;;;4.39;100.00
28079;BME280;15388;42.238;24.684;2022-12-24T08:22:03;99448.00;;;4.38;100.00
28079;BME280;15388;42.238;24.684;2022-12-24T08:24:28;99451.31;;;4.42;100.00
28079;BME280;15388;42.238;24.684;2022-12-24T08:26:53;99444.88;;;4.46;100.00
28079;BME280;15388;42.238;24.684;2022-12-24T08:29:19;99449.97;;;4.49;100.00
28079;BME280;15388;42.238;24.684;2022-12-24T08:31:44;99450.50;;;4.54;100.00
28079;BME280;15388;42.238;24.684;2022-12-24T08:34:09;99438.06;;;4.56;100.00
28079;BME280;15388;42.238;24.684;2022-12-24T08:36:34;99433.53;;;4.58;100.00
28079;BME280;15388;42.238;24.684;2022-12-24T08:39:00;99426.19;;;4.64;100.00
28079;BME280;15388;42.238;24.684;2022-12-24T08:41:28;99434.59;;;4.69;100.00
28079;BME280;15388;42.238;24.684;2022-12-24T08:43:53;99431.25;;;4.67;100.00
28079;BME280;15388;42.238;24.684;2022-12-24T08:46:19;99431.88;;;4.70;100.00
28079;BME280;15388;42.238;24.684;2022-12-24T08:48:44;99431.97;;;4.69;100.00
28079;BME280;15388;42.238;24.684;2022-12-24T08:51:10;99426.81;;;4.67;100.00
28079;BME280;15388;42.238;24.684;2022-12-24T08:53:36;99428.09;;;4.75;100.00
28079;BME280;15388;42.238;24.684;2022-12-24T08:56:02;99431.50;;;4.90;100.00
28079;BME280;15388;42.238;24.684;2022-12-24T08:58:28;99423.91;;;4.98;100.00
28079;BME280;15388;42.238;24.684;2022-12-24T09:00:53;99429.00;;;5.14;100.00
28079;BME280;15388;42.238;24.684;2022-12-24T09:03:18;99430.69;;;5.15;100.00
28079;BME280;15388;42.238;24.684;2022-12-24T09:05:44;99418.78;;;5.35;100.00
28079;BME280;15388;42.238;24.684;2022-12-24T09:08:09;99417.81;;;5.50;100.00
28079;BME280;15388;42.238;24.684;2022-12-24T09:10:34;99423.06;;;5.63;100.00
28079;BME280;15388;42.238;24.684;2022-12-24T09:13:00;99414.91;;;5.79;100.00
28079;BME280;15388;42.238;24.684;2022-12-24T09:15:25;99407.84;;;5.79;100.00
28079;BME280;15388;42.238;24.684;2022-12-24T09:17:50;99416.06;;;5.88;100.00
28079;BME280;15388;42.238;24.684;2022-12-24T09:20:15;99402.75;;;5.89;100.00
28079;BME280;15388;42.238;24.684;2022-12-24T09:22:41;99401.47;;;5.95;100.00
28079;BME280;15388;42.238;24.684;2022-12-24T09:25:06;99403.66;;;6.01;100.00
28079;BME280;15388;42.238;24.684;2022-12-24T09:27:32;99400.63;;;6.07;100.00
28079;BME280;15388;42.238;24.684;2022-12-24T09:29:58;99392.97;;;6.16;100.00
28079;BME280;15388;42.238;24.684;2022-12-24T09:32:23;99392.75;;;6.19;100.00
28079;BME280;15388;42.238;24.684;2022-12-24T09:34:49;99384.72;;;6.20;100.00
28079;BME280;15388;42.238;24.684;2022-12-24T09:37:14;99386.88;;;6.27;100.00
28079;BME280;15388;42.238;24.684;2022-12-24T09:39:39;99386.56;;;6.31;100.00
28079;BME280;15388;42.238;24.684;2022-12-24T09:46:55;99370.00;;;6.29;100.00
28079;BME280;15388;42.238;24.684;2022-12-24T09:49:24;99370.84;;;6.41;100.00
28079;BME280;15388;42.238;24.684;2022-12-24T09:51:52;99374.25;;;6.43;100.00
28079;BME280;15388;42.238;24.684;2022-12-24T09:56:44;99354.53;;;6.47;100.00
28079;BME280;15388;42.238;24.684;2022-12-24T09:59:11;99358.53;;;6.53;100.00
28079;BME280;15388;42.238;24.684;2022-12-24T10:01:38;99351.72;;;6.62;100.00
28079;BME280;15388;42.238;24.684;2022-12-24T10:04:06;99352.59;;;6.74;100.00
28079;BME280;15388;42.238;24.684;2022-12-24T10:06:36;99343.22;;;6.93;100.00
28079;BME280;15388;42.238;24.684;2022-12-24T10:11:50;99345.44;;;7.22;100.00
28079;BME280;15388;42.238;24.684;2022-12-24T10:24:42;99326.06;;;7.44;100.00
28079;BME280;15388;42.238;24.684;2022-12-24T10:27:11;99319.16;;;7.64;100.00
28079;BME280;15388;42.238;24.684;2022-12-24T10:29:39;99325.88;;;7.80;100.00
28079;BME280;15388;42.238;24.684;2022-12-24T10:34:32;99328.03;;;8.19;100.00
28079;BME280;15388;42.238;24.684;2022-12-24T10:37:00;99320.13;;;8.40;100.00
28079;BME280;15388;42.238;24.684;2022-12-24T10:39:28;99326.94;;;8.54;100.00
28079;BME280;15388;42.238;24.684;2022-12-24T10:41:54;99322.34;;;8.78;100.00
28079;BME280;15388;42.238;24.684;2022-12-24T10:44:22;99325.66;;;8.91;100.00
28079;BME280;15388;42.238;24.684;2022-12-24T10:46:48;99317.44;;;8.95;100.00
28079;BME280;15388;42.238;24.684;2022-12-24T10:49:18;99312.28;;;9.03;100.00
28079;BME280;15388;42.238;24.684;2022-12-24T10:51:55;99308.41;;;9.07;100.00
28079;BME280;15388;42.238;24.684;2022-12-24T10:54:26;99322.19;;;9.01;100.00
28079;BME280;15388;42.238;24.684;2022-12-24T10:56:57;99312.34;;;9.13;100.00
28079;BME280;15388;42.238;24.684;2022-12-24T10:59:24;99320.44;;;9.11;100.00
28079;BME280;15388;42.238;24.684;2022-12-24T11:01:50;99320.78;;;9.28;100.00
28079;BME280;15388;42.238;24.684;2022-12-24T11:04:17;99326.66;;;9.32;100.00
28079;BME280;15388;42.238;24.684;2022-12-24T11:06:53;99327.50;;;9.32;100.00
28079;BME280;15388;42.238;24.684;2022-12-24T11:09:20;99314.44;;;9.50;100.00
28079;BME280;15388;42.238;24.684;2022-12-24T11:11:46;99321.72;;;9.58;100.00
28079;BME280;15388;42.238;24.684;2022-12-24T11:14:13;99310.03;;;9.71;100.00
28079;BME280;15388;42.238;24.684;2022-12-24T11:16:45;99311.31;;;9.86;100.00
28079;BME280;15388;42.238;24.684;2022-12-24T11:19:16;99305.84;;;9.98;100.00
28079;BME280;15388;42.238;24.684;2022-12-24T11:21:42;99308.66;;;10.06;100.00
28079;BME280;15388;42.238;24.684;2022-12-24T11:24:19;99305.31;;;10.14;100.00
28079;BME280;15388;42.238;24.684;2022-12-24T11:26:49;99304.50;;;10.13;100.00
28079;BME280;15388;42.238;24.684;2022-12-24T11:31:40;99299.31;;;10.22;100.00
28079;BME280;15388;42.238;24.684;2022-12-24T11:34:22;99294.66;;;10.24;100.00
28079;BME280;15388;42.238;24.684;2022-12-24T11:36:49;99287.94;;;10.29;100.00
28079;BME280;15388;42.238;24.684;2022-12-24T11:39:37;99295.22;;;10.37;100.00
28079;BME280;15388;42.238;24.684;2022-12-24T11:42:02;99288.78;;;10.40;100.00
28079;BME280;15388;42.238;24.684;2022-12-24T11:44:28;99291.31;;;10.51;100.00
28079;BME280;15388;42.238;24.684;2022-12-24T11:46:54;99286.00;;;10.61;100.00
28079;BME280;15388;42.238;24.684;2022-12-24T11:49:29;99290.44;;;10.70;100.00
28079;BME280;15388;42.238;24.684;2022-12-24T11:52:01;99299.94;;;10.83;100.00
28079;BME280;15388;42.238;24.684;2022-12-24T11:54:32;99293.75;;;10.92;100.00
28079;BME280;15388;42.238;24.684;2022-12-24T11:57:01;99291.22;;;11.01;100.00
28079;BME280;15388;42.238;24.684;2022-12-24T11:59:43;99286.28;;;11.06;100.00
28079;BME280;15388;42.238;24.684;2022-12-24T12:02:21;99285.00;;;11.10;100.00
28079;BME280;15388;42.238;24.684;2022-12-24T12:04:51;99282.13;;;11.21;100.00
28079;BME280;15388;42.238;24.684;2022-12-24T12:07:19;99285.06;;;11.28;100.00
28079;BME280;15388;42.238;24.684;2022-12-24T12:09:48;99282.50;;;11.37;100.00
28079;BME280;15388;42.238;24.684;2022-12-24T12:12:15;99283.72;;;11.42;100.00
28079;BME280;15388;42.238;24.684;2022-12-24T12:14:43;99290.13;;;11.50;100.00
28079;BME280;15388;42.238;24.684;2022-12-24T12:17:14;99285.22;;;11.55;100.00
28079;BME280;15388;42.238;24.684;2022-12-24T12:20:17;99284.75;;;11.59;100.00
28079;BME280;15388;42.238;24.684;2022-12-24T12:25:22;99283.00;;;11.68;96.71
28079;BME280;15388;42.238;24.684;2022-12-24T12:27:51;99285.53;;;11.70;97.46
28079;BME280;15388;42.238;24.684;2022-12-24T12:30:19;99284.09;;;11.76;96.76
28079;BME280;15388;42.238;24.684;2022-12-24T12:35:20;99285.16;;;11.83;96.95
28079;BME280;15388;42.238;24.684;2022-12-24T12:37:49;99285.72;;;11.87;96.55
28079;BME280;15388;42.238;24.684;2022-12-24T12:40:16;99282.59;;;11.91;96.63
28079;BME280;15388;42.238;24.684;2022-12-24T12:46:26;99278.31;;;11.98;97.42
28079;BME280;15388;42.238;24.684;2022-12-24T12:51:20;99273.00;;;11.98;97.20
28079;BME280;15388;42.238;24.684;2022-12-24T12:53:52;99278.00;;;12.02;96.11
28079;BME280;15388;42.238;24.684;2022-12-24T12:56:29;99276.03;;;12.04;94.99
28079;BME280;15388;42.238;24.684;2022-12-24T13:01:34;99277.28;;;12.09;95.56
28079;BME280;15388;42.238;24.684;2022-12-24T13:06:35;99287.31;;;11.97;95.85
28079;BME280;15388;42.238;24.684;2022-12-24T13:19:36;99317.47;;;11.98;96.21
28079;BME280;15388;42.238;24.684;2022-12-24T13:22:04;99329.16;;;11.97;95.97
28079;BME280;15388;42.238;24.684;2022-12-24T13:24:30;99327.78;;;11.93;95.66
28079;BME280;15388;42.238;24.684;2022-12-24T13:26:59;99327.22;;;11.89;95.98
28079;BME280;15388;42.238;24.684;2022-12-24T13:34:47;99330.78;;;11.80;96.03
28079;BME280;15388;42.238;24.684;2022-12-24T13:37:20;99332.78;;;11.78;96.12
28079;BME280;15388;42.238;24.684;2022-12-24T13:47:53;99329.44;;;11.48;97.07
28079;BME280;15388;42.238;24.684;2022-12-24T13:50:38;99334.91;;;11.46;97.18
28079;BME280;15388;42.238;24.684;2022-12-24T13:53:04;99335.06;;;11.44;97.29
28079;BME280;15388;42.238;24.684;2022-12-24T13:55:30;99330.69;;;11.43;96.94
28079;BME280;15388;42.238;24.684;2022-12-24T14:05:37;99322.22;;;11.30;96.97
28079;BME280;15388;42.238;24.684;2022-12-24T14:08:14;99333.16;;;11.27;96.89
28079;BME280;15388;42.238;24.684;2022-12-24T14:10:42;99330.09;;;11.21;96.98
28079;BME280;15388;42.238;24.684;2022-12-24T14:18:21;99331.81;;;11.03;97.44
28079;BME280;15388;42.238;24.684;2022-12-24T14:20:51;99324.03;;;10.91;97.93
28079;BME280;15388;42.238;24.684;2022-12-24T14:25:52;99328.25;;;10.84;97.48
28079;BME280;15388;42.238;24.684;2022-12-24T14:28:18;99330.38;;;10.80;97.57
28079;BME280;15388;42.238;24.684;2022-12-24T14:30:58;99329.94;;;10.75;97.69
28079;BME280;15388;42.238;24.684;2022-12-24T14:33:27;99343.38;;;10.74;97.58
28079;BME280;15388;42.238;24.684;2022-12-24T14:35:52;99342.00;;;10.69;97.43
28079;BME280;15388;42.238;24.684;2022-12-24T14:38:18;99339.34;;;10.69;96.88
28079;BME280;15388;42.238;24.684;2022-12-24T14:43:22;99343.41;;;10.64;96.76
28079;BME280;15388;42.238;24.684;2022-12-24T14:46:06;99346.22;;;10.62;96.05
28079;BME280;15388;42.238;24.684;2022-12-24T14:51:37;99345.09;;;10.55;96.98